createdAt,value
2017-12-15T00:02:11.652Z,99.60
2017-12-15T00:04:40.026Z,99.60
2017-12-15T00:07:07.488Z,99.70
2017-12-15T00:09:34.927Z,99.70
2017-12-15T00:12:02.431Z,99.80
2017-12-15T00:14:29.862Z,99.90
2017-12-15T00:16:57.698Z,99.70
2017-12-15T00:19:25.262Z,99.70
2017-12-15T00:21:52.702Z,99.70
2017-12-15T00:24:20.148Z,99.80
2017-12-15T00:26:54.307Z,99.90
2017-12-15T00:29:21.788Z,99.90
2017-12-15T00:31:49.629Z,99.90
2017-12-15T00:34:17.067Z,99.90
2017-12-15T00:36:44.514Z,99.90
2017-12-15T00:39:11.944Z,99.90
2017-12-15T00:41:40.339Z,99.90
2017-12-15T00:44:07.783Z,99.70
2017-12-15T00:46:35.215Z,99.50
2017-12-15T00:49:04.630Z,99.40
2017-12-15T00:51:32.067Z,99.30
2017-12-15T00:53:59.895Z,99.20
2017-12-15T00:56:27.339Z,99.20
2017-12-15T00:58:55.940Z,99.30
2017-12-15T01:01:23.366Z,99.40
2017-12-15T01:03:50.817Z,99.60
2017-12-15T01:06:20.186Z,99.70
2017-12-15T01:08:48.016Z,99.70
2017-12-15T01:11:15.468Z,99.70
2017-12-15T01:13:43.826Z,99.70
2017-12-15T01:16:11.268Z,99.60
2017-12-15T01:18:38.691Z,99.60
2017-12-15T01:21:06.518Z,99.80
2017-12-15T01:23:33.954Z,99.80
2017-12-15T01:26:02.329Z,99.70
2017-12-15T01:28:29.783Z,99.30
2017-12-15T01:30:57.208Z,99.40
2017-12-15T01:33:25.061Z,99.70
2017-12-15T01:35:52.479Z,99.70
2017-12-15T01:38:20.799Z,99.80
2017-12-15T01:40:48.622Z,99.90
2017-12-15T01:43:16.063Z,99.90
2017-12-15T01:45:43.497Z,99.90
2017-12-15T01:48:10.934Z,99.90
2017-12-15T01:50:38.763Z,99.90
2017-12-15T01:53:06.202Z,99.90
2017-12-15T01:55:33.652Z,99.90
2017-12-15T01:58:01.091Z,99.90
2017-12-15T02:00:28.535Z,99.90
2017-12-15T02:02:56.366Z,99.90
2017-12-15T02:05:23.810Z,99.90
2017-12-15T02:07:52.118Z,99.90
2017-12-15T02:10:19.543Z,99.90
2017-12-15T02:12:46.998Z,99.90
2017-12-15T02:15:14.424Z,99.90
2017-12-15T02:17:43.823Z,99.80
2017-12-15T02:20:11.255Z,99.90
2017-12-15T02:22:39.074Z,99.80
2017-12-15T02:25:06.514Z,99.80
2017-12-15T02:27:33.959Z,99.80
2017-12-15T02:30:01.766Z,99.90
2017-12-15T02:32:29.206Z,99.90
2017-12-15T02:34:56.645Z,99.90
2017-12-15T02:37:24.094Z,99.90
2017-12-15T02:39:51.523Z,99.90
2017-12-15T02:42:20.274Z,99.90
2017-12-15T02:44:47.719Z,99.90
2017-12-15T02:47:15.156Z,99.90
2017-12-15T02:49:42.604Z,99.90
2017-12-15T02:52:10.039Z,99.90
2017-12-15T02:54:38.757Z,99.90
2017-12-15T02:57:06.174Z,99.90
2017-12-15T02:59:34.860Z,99.90
2017-12-15T03:02:02.692Z,99.90
2017-12-15T03:04:31.040Z,99.90
2017-12-15T03:06:58.477Z,99.90
2017-12-15T03:09:25.904Z,99.90
2017-12-15T03:11:53.345Z,99.90
2017-12-15T03:14:20.769Z,99.90
2017-12-15T03:16:48.202Z,99.90
2017-12-15T03:19:15.625Z,99.90
2017-12-15T03:21:43.065Z,99.90
2017-12-15T03:24:10.491Z,99.90
2017-12-15T03:26:37.921Z,99.90
2017-12-15T03:29:05.745Z,99.90
2017-12-15T03:31:33.165Z,99.90
2017-12-15T03:34:00.594Z,99.90
2017-12-15T03:36:28.029Z,99.90
2017-12-15T03:38:55.781Z,99.90
2017-12-15T03:41:23.213Z,99.90
2017-12-15T03:43:50.641Z,99.90
2017-12-15T03:46:18.087Z,99.90
2017-12-15T03:48:45.505Z,99.90
2017-12-15T03:51:12.929Z,99.90
2017-12-15T03:53:40.410Z,99.90
2017-12-15T03:56:07.845Z,99.70
2017-12-15T03:58:35.295Z,99.60
2017-12-15T04:01:03.586Z,99.60
2017-12-15T04:03:31.008Z,99.50
2017-12-15T04:06:00.393Z,99.50
2017-12-15T04:08:29.111Z,99.20
2017-12-15T04:10:56.540Z,99.20
2017-12-15T04:13:25.290Z,99.10
2017-12-15T04:15:52.717Z,99.10
2017-12-15T04:18:20.138Z,99.10
2017-12-15T04:20:47.970Z,99.10
2017-12-15T04:23:15.401Z,99.10
2017-12-15T04:25:43.750Z,99.20
2017-12-15T04:28:11.174Z,99.30
2017-12-15T04:30:39.469Z,99.20
2017-12-15T04:33:07.296Z,99.10
2017-12-15T04:35:34.715Z,99.10
2017-12-15T04:38:02.150Z,99.00
2017-12-15T04:40:29.573Z,98.70
2017-12-15T04:42:57.008Z,98.50
2017-12-15T04:45:24.439Z,98.50
2017-12-15T04:47:51.873Z,98.30
2017-12-15T04:50:20.278Z,98.20
2017-12-15T04:52:47.697Z,98.10
2017-12-15T04:55:15.529Z,97.90
2017-12-15T04:57:43.878Z,97.90
2017-12-15T05:00:11.309Z,97.50
2017-12-15T05:02:38.741Z,97.30
2017-12-15T05:05:06.162Z,97.40
2017-12-15T05:07:33.604Z,97.40
2017-12-15T05:10:01.023Z,97.70
2017-12-15T05:12:28.841Z,98.10
2017-12-15T05:14:56.295Z,98.10
2017-12-15T05:17:23.717Z,98.40
2017-12-15T05:19:51.149Z,98.60
2017-12-15T05:22:18.993Z,99.20
2017-12-15T05:24:46.422Z,99.20
2017-12-15T05:27:13.853Z,99.50
2017-12-15T05:29:41.273Z,99.70
2017-12-15T05:32:08.709Z,99.80
2017-12-15T05:34:36.139Z,99.90
2017-12-15T05:37:03.556Z,99.80
2017-12-15T05:39:33.324Z,99.80
2017-12-15T05:42:00.745Z,99.70
2017-12-15T05:44:28.185Z,99.70
2017-12-15T05:46:56.009Z,99.50
2017-12-15T05:49:23.462Z,99.50
2017-12-15T05:51:50.888Z,99.40
2017-12-15T05:54:18.329Z,99.40
2017-12-15T05:56:45.758Z,99.40
2017-12-15T05:59:13.182Z,99.40
2017-12-15T06:01:40.619Z,99.50
2017-12-15T06:04:08.046Z,99.50
2017-12-15T06:06:35.872Z,99.40
2017-12-15T06:09:03.297Z,99.40
2017-12-15T06:11:30.734Z,99.40
2017-12-15T06:13:58.168Z,99.20
2017-12-15T06:16:26.029Z,99.10
2017-12-15T06:18:53.420Z,99.10
2017-12-15T06:21:20.844Z,99.40
2017-12-15T06:23:48.677Z,99.70
2017-12-15T06:26:16.101Z,99.70
2017-12-15T06:28:43.528Z,99.80
2017-12-15T06:31:11.352Z,99.80
2017-12-15T06:33:40.709Z,99.80
2017-12-15T06:36:08.139Z,99.80
2017-12-15T06:38:36.881Z,99.70
2017-12-15T06:41:04.318Z,99.70
2017-12-15T06:43:31.751Z,99.50
2017-12-15T06:45:59.591Z,99.30
2017-12-15T06:48:27.023Z,99.30
2017-12-15T06:50:54.470Z,99.10
2017-12-15T06:53:22.840Z,98.90
2017-12-15T06:55:50.284Z,98.70
2017-12-15T06:58:17.714Z,98.50
2017-12-15T07:00:45.555Z,98.60
2017-12-15T07:03:13.001Z,98.60
2017-12-15T07:05:40.431Z,98.90
2017-12-15T07:08:07.878Z,98.50
2017-12-15T07:10:35.301Z,98.80
2017-12-15T07:13:03.133Z,99.00
2017-12-15T07:15:30.564Z,99.00
2017-12-15T07:17:58.012Z,99.00
2017-12-15T07:20:25.446Z,99.00
2017-12-15T07:22:55.214Z,99.10
2017-12-15T07:25:22.642Z,99.10
2017-12-15T07:27:50.466Z,99.10
2017-12-15T07:30:18.314Z,99.20
2017-12-15T07:32:45.741Z,99.20
2017-12-15T07:35:13.181Z,99.30
2017-12-15T07:37:40.619Z,99.30
2017-12-15T07:40:08.455Z,99.10
2017-12-15T07:42:36.883Z,99.10
2017-12-15T07:45:04.314Z,99.00
2017-12-15T07:47:32.145Z,98.80
2017-12-15T07:50:03.022Z,98.80
2017-12-15T07:52:30.541Z,98.70
2017-12-15T07:54:59.380Z,98.30
2017-12-15T07:57:27.707Z,98.20
2017-12-15T07:59:55.417Z,98.20
2017-12-15T08:02:23.254Z,98.30
2017-12-15T08:04:51.208Z,98.30
2017-12-15T08:07:18.931Z,98.40
2017-12-15T08:09:46.550Z,98.40
2017-12-15T08:12:13.992Z,98.30
2017-12-15T08:14:42.818Z,98.20
2017-12-15T08:17:10.482Z,98.10
2017-12-15T08:19:40.370Z,98.20
2017-12-15T08:22:09.219Z,98.20
2017-12-15T08:24:36.863Z,98.20
2017-12-15T08:27:05.479Z,98.10
2017-12-15T08:29:32.938Z,97.60
2017-12-15T08:32:01.177Z,97.50
2017-12-15T08:34:28.847Z,97.70
2017-12-15T08:36:56.565Z,97.90
2017-12-15T08:39:24.410Z,98.30
2017-12-15T08:41:51.838Z,98.30
2017-12-15T08:44:19.390Z,98.40
2017-12-15T08:46:46.818Z,98.30
2017-12-15T08:49:14.262Z,98.30
2017-12-15T08:51:42.097Z,98.30
2017-12-15T08:54:09.530Z,98.30
2017-12-15T08:56:38.016Z,97.80
2017-12-15T08:59:05.446Z,97.60
2017-12-15T09:01:32.881Z,97.80
2017-12-15T09:04:06.326Z,97.60
2017-12-15T09:06:33.769Z,97.60
2017-12-15T09:09:01.230Z,97.60
2017-12-15T09:11:30.610Z,97.60
2017-12-15T09:13:58.046Z,97.60
2017-12-15T09:16:25.861Z,97.80
2017-12-15T09:18:53.306Z,97.80
2017-12-15T09:21:20.734Z,97.60
2017-12-15T09:23:48.182Z,97.80
2017-12-15T09:26:16.032Z,97.80
2017-12-15T09:28:43.470Z,97.80
2017-12-15T09:31:10.894Z,98.10
2017-12-15T09:33:39.907Z,97.80
2017-12-15T09:36:09.269Z,97.90
2017-12-15T09:38:36.699Z,97.80
2017-12-15T09:41:04.125Z,98.10
2017-12-15T09:43:31.570Z,98.50
2017-12-15T09:45:59.019Z,98.60
2017-12-15T09:48:26.483Z,98.60
2017-12-15T09:50:53.925Z,98.10
2017-12-15T09:53:22.362Z,98.10
2017-12-15T09:55:50.195Z,98.30
2017-12-15T09:58:17.633Z,98.30
2017-12-15T10:00:45.963Z,98.10
2017-12-15T10:03:13.790Z,97.30
2017-12-15T10:05:41.479Z,97.30
2017-12-15T10:08:10.203Z,97.60
2017-12-15T10:10:38.502Z,97.20
2017-12-15T10:13:05.939Z,97.50
2017-12-15T10:18:27.654Z,97.30
2017-12-15T10:20:55.462Z,97.10
2017-12-15T10:23:22.903Z,97.10
2017-12-15T10:25:50.323Z,97.20
2017-12-15T10:28:18.129Z,97.30
2017-12-15T10:30:45.559Z,97.30
2017-12-15T10:33:13.359Z,97.70
2017-12-15T10:35:40.851Z,97.70
2017-12-15T10:38:09.104Z,97.80
2017-12-15T10:40:38.516Z,97.90
2017-12-15T10:43:05.944Z,97.70
2017-12-15T10:45:33.375Z,97.50
2017-12-15T10:48:00.800Z,97.30
2017-12-15T10:50:28.223Z,96.90
2017-12-15T10:52:55.645Z,95.90
2017-12-15T10:55:23.055Z,95.80
2017-12-15T10:57:50.501Z,95.40
2017-12-15T11:00:17.909Z,94.70
2017-12-15T11:02:45.340Z,94.70
2017-12-15T11:05:14.723Z,95.00
2017-12-15T11:07:42.167Z,95.30
2017-12-15T11:10:09.605Z,95.70
2017-12-15T11:12:37.258Z,96.30
2017-12-15T11:15:04.707Z,96.10
2017-12-15T11:17:32.159Z,95.60
2017-12-15T11:19:59.591Z,95.40
2017-12-15T11:22:27.031Z,95.50
2017-12-15T11:24:55.359Z,95.40
2017-12-15T11:27:22.802Z,95.30
2017-12-15T11:29:51.162Z,95.60
2017-12-15T11:32:18.991Z,96.00
2017-12-15T11:34:46.448Z,95.90
2017-12-15T11:37:13.894Z,95.90
2017-12-15T11:39:41.328Z,96.10
2017-12-15T11:42:08.792Z,96.50
2017-12-15T11:44:36.254Z,96.40
2017-12-15T11:47:03.691Z,96.40
2017-12-15T11:49:31.138Z,96.50
2017-12-15T11:51:58.974Z,96.40
2017-12-15T11:54:26.418Z,96.40
2017-12-15T11:56:54.746Z,96.50
2017-12-15T11:59:22.191Z,96.60
2017-12-15T12:01:50.018Z,96.50
2017-12-15T12:04:17.468Z,96.50
2017-12-15T12:06:44.907Z,96.70
2017-12-15T12:09:12.357Z,96.80
2017-12-15T12:11:39.787Z,97.00
2017-12-15T12:14:07.227Z,96.80
2017-12-15T12:16:35.082Z,97.10
2017-12-15T12:19:02.499Z,97.10
2017-12-15T12:21:30.906Z,96.90
2017-12-15T12:23:58.349Z,96.60
2017-12-15T12:26:25.787Z,96.60
2017-12-15T12:28:53.224Z,96.70
2017-12-15T12:31:20.671Z,96.60
2017-12-15T12:33:48.114Z,96.70
2017-12-15T12:36:16.068Z,96.90
2017-12-15T12:38:43.507Z,96.90
2017-12-15T12:41:10.947Z,96.90
2017-12-15T12:43:38.403Z,96.50
2017-12-15T12:46:05.852Z,96.40
2017-12-15T12:48:33.305Z,96.20
2017-12-15T12:51:00.738Z,96.30
2017-12-15T12:53:28.176Z,96.40
2017-12-15T12:55:55.603Z,96.60
2017-12-15T12:58:23.044Z,97.00
2017-12-15T13:00:51.410Z,97.00
2017-12-15T13:03:18.860Z,97.10
2017-12-15T13:05:46.295Z,97.60
2017-12-15T13:08:13.726Z,97.70
2017-12-15T13:10:41.570Z,96.80
2017-12-15T13:13:09.008Z,96.70
2017-12-15T13:15:36.454Z,96.80
2017-12-15T13:18:03.883Z,96.50
2017-12-15T13:20:31.330Z,96.60
2017-12-15T13:22:59.162Z,97.60
2017-12-15T13:25:26.602Z,97.60
2017-12-15T13:27:54.047Z,97.40
2017-12-15T13:30:21.454Z,97.20
2017-12-15T13:32:51.226Z,97.60
2017-12-15T13:35:18.639Z,97.60
2017-12-15T13:37:46.055Z,97.90
2017-12-15T13:40:13.475Z,97.70
2017-12-15T13:42:40.891Z,97.00
2017-12-15T13:45:08.713Z,96.70
2017-12-15T13:47:36.131Z,96.70
2017-12-15T13:50:03.557Z,97.30
2017-12-15T13:52:31.903Z,97.20
2017-12-15T13:54:59.432Z,96.70
2017-12-15T13:57:26.803Z,96.50
2017-12-15T13:59:54.229Z,96.70
2017-12-15T14:02:22.053Z,96.30
2017-12-15T14:04:49.485Z,96.30
2017-12-15T14:07:16.908Z,96.30
2017-12-15T14:09:44.337Z,96.10
2017-12-15T14:12:11.762Z,96.40
2017-12-15T14:14:39.210Z,97.00
2017-12-15T14:17:06.633Z,97.50
2017-12-15T14:19:34.059Z,97.90
2017-12-15T14:22:01.512Z,98.30
2017-12-15T14:24:28.923Z,98.80
2017-12-15T14:26:56.367Z,99.00
2017-12-15T14:29:23.788Z,99.20
2017-12-15T14:31:51.235Z,99.40
2017-12-15T14:34:19.554Z,99.60
2017-12-15T14:36:46.982Z,99.80
2017-12-15T14:39:14.422Z,99.80
2017-12-15T14:41:41.877Z,99.70
2017-12-15T14:44:09.330Z,99.60
2017-12-15T14:46:36.770Z,99.70
2017-12-15T14:49:04.218Z,99.70
2017-12-15T14:51:31.666Z,99.70
2017-12-15T14:53:59.123Z,99.70
2017-12-15T14:56:28.519Z,99.70
2017-12-15T14:58:55.943Z,99.70
2017-12-15T15:01:23.781Z,99.80
2017-12-15T15:03:51.216Z,99.80
2017-12-15T15:06:18.663Z,99.80
2017-12-15T15:08:46.105Z,99.80
2017-12-15T15:11:13.542Z,99.60
2017-12-15T15:13:41.366Z,99.20
2017-12-15T15:16:08.802Z,99.20
2017-12-15T15:18:36.249Z,98.90
2017-12-15T15:21:03.679Z,98.90
2017-12-15T15:23:31.514Z,99.20
2017-12-15T15:25:58.971Z,99.20
2017-12-15T15:28:26.423Z,99.30
2017-12-15T15:30:53.851Z,99.30
2017-12-15T15:33:21.298Z,99.10
2017-12-15T15:35:48.739Z,99.10
2017-12-15T15:38:16.175Z,99.10
2017-12-15T15:40:44.021Z,99.00
2017-12-15T15:43:11.455Z,99.00
2017-12-15T15:45:38.903Z,98.90
2017-12-15T15:48:06.346Z,98.80
2017-12-15T15:50:33.787Z,98.30
2017-12-15T15:53:01.241Z,98.30
2017-12-15T15:55:30.607Z,98.10
2017-12-15T15:57:58.042Z,97.70
2017-12-15T16:00:25.487Z,97.80
2017-12-15T16:02:52.926Z,98.00
2017-12-15T16:05:21.243Z,97.90
2017-12-15T16:07:48.690Z,97.80
2017-12-15T16:10:16.134Z,97.90
2017-12-15T16:12:44.519Z,98.10
2017-12-15T16:15:11.954Z,98.40
2017-12-15T16:17:39.383Z,98.60
2017-12-15T16:20:06.822Z,98.60
2017-12-15T16:22:34.647Z,99.00
2017-12-15T16:25:02.084Z,99.00
2017-12-15T16:27:30.494Z,99.00
2017-12-15T16:29:57.931Z,99.00
2017-12-15T16:32:25.390Z,98.90
2017-12-15T16:34:52.938Z,99.00
2017-12-15T16:37:21.274Z,99.00
2017-12-15T16:39:49.107Z,99.00
2017-12-15T16:42:16.580Z,99.00
2017-12-15T16:44:44.999Z,99.00
2017-12-15T16:47:12.423Z,99.10
2017-12-15T16:49:39.861Z,99.10
2017-12-15T16:52:07.290Z,99.20
2017-12-15T16:54:34.767Z,99.30
2017-12-15T16:57:02.199Z,99.20
2017-12-15T16:59:30.563Z,99.10
2017-12-15T17:01:58.006Z,99.10
2017-12-15T17:04:27.029Z,99.10
2017-12-15T17:06:54.481Z,99.10
2017-12-15T17:09:21.912Z,99.10
2017-12-15T17:11:49.334Z,99.10
2017-12-15T17:14:16.790Z,99.00
2017-12-15T17:16:44.210Z,99.10
2017-12-15T17:19:11.646Z,99.30
2017-12-15T17:21:39.075Z,99.50
2017-12-15T17:24:06.916Z,99.90
2017-12-15T17:26:34.330Z,99.90
2017-12-15T17:29:01.766Z,99.90
2017-12-15T17:31:29.591Z,99.90
2017-12-15T17:33:57.037Z,99.90
2017-12-15T17:36:26.677Z,99.90
2017-12-15T17:38:54.103Z,99.90
2017-12-15T17:41:21.546Z,99.90
2017-12-15T17:43:48.981Z,99.90
2017-12-15T17:46:16.424Z,99.90
2017-12-15T17:48:44.248Z,99.90
2017-12-15T17:51:11.691Z,99.90
2017-12-15T17:53:39.122Z,99.90
2017-12-15T17:56:06.562Z,99.90
2017-12-15T17:58:34.387Z,99.90
2017-12-15T18:01:01.810Z,99.90
2017-12-15T18:03:29.249Z,99.90
2017-12-15T18:05:56.680Z,99.90
2017-12-15T18:08:24.517Z,99.90
2017-12-15T18:10:51.963Z,99.90
2017-12-15T18:13:19.399Z,99.80
2017-12-15T18:15:48.082Z,99.80
2017-12-15T18:18:15.494Z,99.70
2017-12-15T18:20:43.331Z,99.70
2017-12-15T18:23:10.767Z,99.70
2017-12-15T18:25:38.211Z,99.70
2017-12-15T18:28:05.637Z,99.70
2017-12-15T18:30:33.478Z,99.70
2017-12-15T18:33:00.915Z,99.70
2017-12-15T18:35:28.339Z,99.70
2017-12-15T18:37:57.730Z,99.70
2017-12-15T18:40:25.158Z,99.80
2017-12-15T18:42:54.846Z,99.90
2017-12-15T18:45:22.302Z,99.90
2017-12-15T18:47:49.757Z,99.90
2017-12-15T18:50:17.194Z,99.80
2017-12-15T18:52:44.687Z,99.80
2017-12-15T18:55:12.114Z,99.70
2017-12-15T18:57:39.558Z,99.80
2017-12-15T19:00:06.996Z,99.90
2017-12-15T19:02:34.449Z,99.90
2017-12-15T19:05:02.274Z,99.70
2017-12-15T19:07:29.718Z,99.70
2017-12-15T19:09:57.182Z,99.60
2017-12-15T19:12:24.640Z,99.60
2017-12-15T19:14:52.080Z,99.60
2017-12-15T19:17:19.515Z,99.50
2017-12-15T19:19:46.965Z,99.50
2017-12-15T19:22:15.355Z,99.50
2017-12-15T19:24:43.709Z,99.40
2017-12-15T19:27:11.546Z,99.40
2017-12-15T19:29:39.001Z,99.40
2017-12-15T19:32:06.441Z,98.70
2017-12-15T19:34:36.822Z,97.80
2017-12-15T19:37:04.262Z,97.30
2017-12-15T19:39:32.110Z,97.10
2017-12-15T19:41:59.551Z,97.10
2017-12-15T19:44:26.983Z,97.10
2017-12-15T19:46:54.432Z,97.40
2017-12-15T19:49:21.876Z,97.70
2017-12-15T19:51:49.326Z,97.90
2017-12-15T19:54:16.766Z,98.10
2017-12-15T19:56:45.494Z,98.60
2017-12-15T19:59:12.938Z,98.60
2017-12-15T20:01:40.399Z,98.70
2017-12-15T20:04:07.853Z,99.00
2017-12-15T20:06:35.290Z,99.10
2017-12-15T20:09:02.743Z,99.30
2017-12-15T20:11:31.133Z,99.30
2017-12-15T20:13:59.197Z,98.50
2017-12-15T20:16:26.699Z,97.90
2017-12-15T20:18:55.018Z,97.90
2017-12-15T20:21:23.724Z,97.90
2017-12-15T20:23:51.180Z,97.90
2017-12-15T20:26:18.626Z,97.50
2017-12-15T20:28:46.558Z,96.80
2017-12-15T20:31:14.013Z,96.80
2017-12-15T20:33:41.497Z,96.60
2017-12-15T20:36:09.336Z,96.60
2017-12-15T20:38:37.723Z,96.60
2017-12-15T20:41:05.174Z,97.40
2017-12-15T20:43:32.623Z,97.70
2017-12-15T20:46:00.078Z,98.00
2017-12-15T20:48:27.518Z,98.30
2017-12-15T20:50:54.960Z,98.20
2017-12-15T20:53:22.410Z,98.20
2017-12-15T20:55:49.868Z,98.20
2017-12-15T20:58:18.250Z,98.30
2017-12-15T21:00:45.704Z,98.70
2017-12-15T21:03:13.188Z,98.70
2017-12-15T21:05:40.623Z,98.80
2017-12-15T21:08:08.059Z,98.80
2017-12-15T21:10:35.506Z,98.40
2017-12-15T21:13:03.359Z,97.60
2017-12-15T21:15:31.195Z,97.70
2017-12-15T21:17:58.640Z,97.70
2017-12-15T21:20:26.074Z,98.00
2017-12-15T21:22:54.415Z,98.30
2017-12-15T21:25:22.252Z,98.70
2017-12-15T21:27:49.701Z,98.70
2017-12-15T21:30:17.463Z,99.00
2017-12-15T21:32:44.921Z,99.20
2017-12-15T21:35:12.364Z,99.40
2017-12-15T21:37:39.814Z,99.60
2017-12-15T21:40:07.264Z,99.70
2017-12-15T21:42:34.728Z,99.90
2017-12-15T21:45:02.162Z,99.90
2017-12-15T21:47:29.610Z,99.90
2017-12-15T21:49:57.062Z,99.90
2017-12-15T21:52:24.889Z,99.90
2017-12-15T21:54:52.335Z,99.90
2017-12-15T21:57:19.801Z,99.90
2017-12-15T21:59:48.148Z,99.90
2017-12-15T22:02:15.611Z,99.90
2017-12-15T22:04:43.042Z,99.90
2017-12-15T22:07:10.489Z,99.90
2017-12-15T22:09:39.267Z,99.90
2017-12-15T22:12:07.094Z,99.90
2017-12-15T22:14:34.546Z,99.90
2017-12-15T22:17:02.000Z,99.90
2017-12-15T22:19:29.449Z,99.90
2017-12-15T22:21:56.894Z,99.90
2017-12-15T22:24:24.353Z,99.90
2017-12-15T22:26:51.803Z,99.90
2017-12-15T22:29:19.223Z,99.50
2017-12-15T22:31:49.022Z,98.10
2017-12-15T22:34:16.462Z,98.10
2017-12-15T22:36:43.944Z,97.60
2017-12-15T22:39:12.316Z,97.20
2017-12-15T22:41:39.745Z,96.90
2017-12-15T22:44:07.186Z,96.90
2017-12-15T22:46:34.651Z,97.00
2017-12-15T22:49:02.097Z,96.80
2017-12-15T22:51:29.532Z,96.70
2017-12-15T22:53:56.970Z,96.60
2017-12-15T22:56:25.655Z,96.50
2017-12-15T22:58:53.484Z,96.40
2017-12-15T23:01:20.910Z,96.50
2017-12-15T23:03:48.334Z,96.30
2017-12-15T23:06:16.153Z,96.50
2017-12-15T23:08:44.820Z,96.50
2017-12-15T23:11:12.274Z,96.70
2017-12-15T23:13:40.637Z,96.90
2017-12-15T23:16:08.055Z,97.00
2017-12-15T23:18:35.494Z,97.10
2017-12-15T23:21:02.931Z,96.90
2017-12-15T23:23:30.399Z,97.10
2017-12-15T23:25:58.719Z,97.30
2017-12-15T23:28:26.542Z,97.40
2017-12-15T23:30:53.971Z,97.40
2017-12-15T23:33:21.415Z,97.10
2017-12-15T23:35:48.847Z,97.10
2017-12-15T23:38:16.673Z,97.10
2017-12-15T23:40:44.095Z,97.10
2017-12-15T23:43:11.535Z,97.30
2017-12-15T23:45:39.364Z,97.40
2017-12-15T23:48:06.810Z,97.40
2017-12-15T23:50:34.268Z,97.10
2017-12-15T23:53:01.716Z,96.90
2017-12-15T23:55:41.113Z,96.80
2017-12-15T23:58:08.565Z,96.80
